createdAt,value
2023-07-09T00:01:28.383Z,60.70
2023-07-09T00:03:55.367Z,60.90
2023-07-09T00:06:22.854Z,60.90
2023-07-09T00:08:50.692Z,61.10
2023-07-09T00:11:18.256Z,61.10
2023-07-09T00:13:45.778Z,61.20
2023-07-09T00:16:22.554Z,61.50
2023-07-09T00:18:50.175Z,61.70
2023-07-09T00:21:19.546Z,61.60
2023-07-09T00:23:47.897Z,61.80
2023-07-09T00:26:15.892Z,61.80
2023-07-09T00:28:44.515Z,61.80
2023-07-09T00:31:16.651Z,61.90
2023-07-09T00:33:47.560Z,61.80
2023-07-09T00:36:27.601Z,61.90
2023-07-09T00:38:54.517Z,62.00
2023-07-09T00:41:24.304Z,62.10
2023-07-09T00:43:53.058Z,62.20
2023-07-09T00:46:27.363Z,62.40
2023-07-09T00:49:01.284Z,62.50
2023-07-09T00:51:30.113Z,62.70
2023-07-09T00:54:02.268Z,62.70
2023-07-09T00:56:33.493Z,62.90
2023-07-09T00:59:05.795Z,62.90
2023-07-09T01:01:33.911Z,63.00
2023-07-09T01:04:04.520Z,63.00
2023-07-09T01:06:48.882Z,63.10
2023-07-09T01:09:16.743Z,63.30
2023-07-09T01:11:43.634Z,63.30
2023-07-09T01:14:14.582Z,63.40
2023-07-09T01:16:58.141Z,63.60
2023-07-09T01:19:29.478Z,63.70
2023-07-09T01:22:01.387Z,63.80
2023-07-09T01:25:00.792Z,63.90
2023-07-09T01:27:34.602Z,64.00
2023-07-09T01:30:05.287Z,64.00
2023-07-09T01:32:32.539Z,64.10
2023-07-09T01:35:05.878Z,64.10
2023-07-09T01:37:35.760Z,64.20
2023-07-09T01:40:10.836Z,64.30
2023-07-09T01:42:47.904Z,64.30
2023-07-09T01:45:16.533Z,64.40
2023-07-09T01:47:45.020Z,64.60
2023-07-09T01:50:12.262Z,64.60
2023-07-09T01:52:43.160Z,64.70
2023-07-09T01:55:12.122Z,64.80
2023-07-09T01:57:42.134Z,65.00
2023-07-09T02:00:12.560Z,65.00
2023-07-09T02:02:46.875Z,65.20
2023-07-09T02:05:16.681Z,65.30
2023-07-09T02:07:43.697Z,65.40
2023-07-09T02:10:11.977Z,65.50
2023-07-09T02:12:39.144Z,65.60
2023-07-09T02:15:07.071Z,65.70
2023-07-09T02:17:33.874Z,65.70
2023-07-09T02:20:00.764Z,65.80
2023-07-09T02:22:27.792Z,66.10
2023-07-09T02:24:54.719Z,66.10
2023-07-09T02:27:22.953Z,66.20
2023-07-09T02:29:50.178Z,66.30
2023-07-09T02:32:27.847Z,66.30
2023-07-09T02:34:56.204Z,66.30
2023-07-09T02:37:27.239Z,66.30
2023-07-09T02:39:54.894Z,66.40
2023-07-09T02:42:24.011Z,66.40
2023-07-09T02:44:51.904Z,66.50
2023-07-09T02:47:19.821Z,66.50
2023-07-09T02:49:47.353Z,66.60
2023-07-09T02:52:14.757Z,66.70
2023-07-09T02:54:41.896Z,66.80
2023-07-09T02:57:10.157Z,66.70
2023-07-09T02:59:37.127Z,66.90
2023-07-09T03:02:04.708Z,67.00
2023-07-09T03:04:32.505Z,67.10
2023-07-09T03:07:01.152Z,67.10
2023-07-09T03:09:29.065Z,67.20
2023-07-09T03:11:56.918Z,67.30
2023-07-09T03:14:24.105Z,67.30
2023-07-09T03:16:51.271Z,67.50
2023-07-09T03:19:18.608Z,67.50
2023-07-09T03:21:45.539Z,67.50
2023-07-09T03:24:12.501Z,67.60
2023-07-09T03:26:39.437Z,67.70
2023-07-09T03:29:06.413Z,67.70
2023-07-09T03:31:36.287Z,67.80
2023-07-09T03:34:03.764Z,67.90
2023-07-09T03:36:31.142Z,68.00
2023-07-09T03:38:58.191Z,68.10
2023-07-09T03:41:25.779Z,68.20
2023-07-09T03:43:54.630Z,68.20
2023-07-09T03:46:21.864Z,68.30
2023-07-09T03:48:50.515Z,68.30
2023-07-09T03:51:18.540Z,68.40
2023-07-09T03:53:45.685Z,68.40
2023-07-09T03:56:12.633Z,68.50
2023-07-09T03:58:39.851Z,68.60
2023-07-09T04:01:07.068Z,68.60
2023-07-09T04:03:34.172Z,68.50
2023-07-09T04:06:01.427Z,68.40
2023-07-09T04:08:28.650Z,68.40
2023-07-09T04:10:59.684Z,68.50
2023-07-09T04:13:28.349Z,68.60
2023-07-09T04:15:56.555Z,68.70
2023-07-09T04:18:23.645Z,68.70
2023-07-09T04:20:51.614Z,68.70
2023-07-09T04:23:19.785Z,68.70
2023-07-09T04:25:46.918Z,68.80
2023-07-09T04:28:14.402Z,68.90
2023-07-09T04:30:49.096Z,68.90
2023-07-09T04:33:18.627Z,69.00
2023-07-09T04:35:47.128Z,68.90
2023-07-09T04:38:14.764Z,69.00
2023-07-09T04:40:42.116Z,69.10
2023-07-09T04:43:09.222Z,69.10
2023-07-09T04:45:36.155Z,69.20
2023-07-09T04:48:03.661Z,69.20
2023-07-09T04:50:30.562Z,69.30
2023-07-09T04:52:57.545Z,69.30
2023-07-09T04:55:24.444Z,69.40
2023-07-09T04:57:51.547Z,69.40
2023-07-09T05:00:18.740Z,69.50
2023-07-09T05:02:45.934Z,69.50
2023-07-09T05:05:13.094Z,69.40
2023-07-09T05:07:40.676Z,69.30
2023-07-09T05:10:08.088Z,69.30
2023-07-09T05:12:35.039Z,69.30
2023-07-09T05:15:02.089Z,69.30
2023-07-09T05:17:28.994Z,69.30
2023-07-09T05:19:55.977Z,69.30
2023-07-09T05:22:22.867Z,69.40
2023-07-09T05:24:49.912Z,69.30
2023-07-09T05:27:16.758Z,69.10
2023-07-09T05:29:43.668Z,68.90
2023-07-09T05:32:10.497Z,68.80
2023-07-09T05:34:37.298Z,68.70
2023-07-09T05:37:04.462Z,68.50
2023-07-09T05:39:31.389Z,68.50
2023-07-09T05:41:58.257Z,68.50
2023-07-09T05:44:25.057Z,68.30
2023-07-09T05:46:52.203Z,68.00
2023-07-09T05:49:19.392Z,67.80
2023-07-09T05:51:46.229Z,67.60
2023-07-09T05:54:13.334Z,67.40
2023-07-09T05:56:40.413Z,67.10
2023-07-09T05:59:07.354Z,66.70
2023-07-09T06:01:34.230Z,66.50
2023-07-09T06:04:01.428Z,66.30
2023-07-09T06:06:28.605Z,66.00
2023-07-09T06:08:55.552Z,65.70
2023-07-09T06:11:22.900Z,65.40
2023-07-09T06:13:50.088Z,65.00
2023-07-09T06:16:18.577Z,64.80
2023-07-09T06:18:45.644Z,64.30
2023-07-09T06:21:13.881Z,63.90
2023-07-09T06:23:40.810Z,63.50
2023-07-09T06:26:07.815Z,63.30
2023-07-09T06:28:34.982Z,63.10
2023-07-09T06:31:02.103Z,63.10
2023-07-09T06:33:30.002Z,62.60
2023-07-09T06:36:01.995Z,62.40
2023-07-09T06:38:30.137Z,62.10
2023-07-09T06:40:58.164Z,61.90
2023-07-09T06:43:25.139Z,61.60
2023-07-09T06:45:57.313Z,61.60
2023-07-09T06:48:25.415Z,61.40
2023-07-09T06:50:54.441Z,60.80
2023-07-09T06:53:21.875Z,60.60
2023-07-09T06:55:50.258Z,60.30
2023-07-09T06:58:20.345Z,60.50
2023-07-09T07:00:49.953Z,60.30
2023-07-09T07:03:17.454Z,60.20
2023-07-09T07:05:50.373Z,59.90
2023-07-09T07:08:20.481Z,59.40
2023-07-09T07:10:49.589Z,59.20
2023-07-09T07:13:16.893Z,58.70
2023-07-09T07:15:49.626Z,58.30
2023-07-09T07:18:16.542Z,58.00
2023-07-09T07:20:44.352Z,57.60
2023-07-09T07:23:12.063Z,57.30
2023-07-09T07:25:39.051Z,57.00
2023-07-09T07:28:05.915Z,56.80
2023-07-09T07:30:32.875Z,56.80
2023-07-09T07:33:00.148Z,56.70
2023-07-09T07:35:27.117Z,56.80
2023-07-09T07:37:54.144Z,56.60
2023-07-09T07:40:21.046Z,56.30
2023-07-09T07:42:47.994Z,56.20
2023-07-09T07:45:14.887Z,56.70
2023-07-09T07:47:42.203Z,56.90
2023-07-09T07:50:09.749Z,57.00
2023-07-09T07:52:38.415Z,56.80
2023-07-09T07:55:11.741Z,56.90
2023-07-09T07:57:41.566Z,56.80
2023-07-09T08:00:10.416Z,56.30
2023-07-09T08:02:40.063Z,56.00
2023-07-09T08:05:07.359Z,55.80
2023-07-09T08:07:34.542Z,55.50
2023-07-09T08:10:01.384Z,55.70
2023-07-09T08:12:28.197Z,55.80
2023-07-09T08:14:55.134Z,55.70
2023-07-09T08:17:21.987Z,55.30
2023-07-09T08:19:56.857Z,55.10
2023-07-09T08:22:24.024Z,54.70
2023-07-09T08:24:51.882Z,54.10
2023-07-09T08:27:20.814Z,53.80
2023-07-09T08:29:48.319Z,53.40
2023-07-09T08:32:15.879Z,53.30
2023-07-09T08:35:03.199Z,53.30
2023-07-09T08:37:30.359Z,52.80
2023-07-09T08:39:57.229Z,52.70
2023-07-09T08:42:46.849Z,52.40
2023-07-09T08:45:41.181Z,51.20
2023-07-09T08:48:16.623Z,51.00
2023-07-09T08:50:48.083Z,50.70
2023-07-09T08:53:51.445Z,50.70
2023-07-09T08:56:19.685Z,50.70
2023-07-09T08:58:48.620Z,50.30
2023-07-09T09:01:24.251Z,49.40
2023-07-09T09:04:00.302Z,47.70
2023-07-09T09:06:29.327Z,46.50
2023-07-09T09:09:04.224Z,46.30
2023-07-09T09:11:34.457Z,45.80
2023-07-09T09:14:07.301Z,45.80
2023-07-09T09:16:39.574Z,45.30
2023-07-09T09:19:27.836Z,45.40
2023-07-09T09:22:06.075Z,44.00
2023-07-09T09:24:56.455Z,43.50
2023-07-09T09:27:23.425Z,42.70
2023-07-09T09:29:50.366Z,42.20
2023-07-09T09:32:27.596Z,41.20
2023-07-09T09:34:55.843Z,41.20
2023-07-09T09:37:31.511Z,41.40
2023-07-09T09:40:13.644Z,41.80
2023-07-09T09:42:44.092Z,42.10
2023-07-09T09:45:17.410Z,42.00
2023-07-09T09:47:46.345Z,42.00
2023-07-09T09:50:22.460Z,41.70
2023-07-09T09:52:50.541Z,40.60
2023-07-09T09:55:20.975Z,39.90
2023-07-09T09:57:53.573Z,39.40
2023-07-09T10:00:26.337Z,39.10
2023-07-09T10:03:02.641Z,39.40
2023-07-09T10:05:52.943Z,39.60
2023-07-09T10:08:28.986Z,39.10
2023-07-09T10:11:09.309Z,38.60
2023-07-09T10:13:42.808Z,38.20
2023-07-09T10:16:24.702Z,36.90
2023-07-09T10:19:14.616Z,36.30
2023-07-09T10:21:52.801Z,36.40
2023-07-09T10:24:40.675Z,36.60
2023-07-09T10:27:32.576Z,37.20
2023-07-09T10:30:22.279Z,38.00
2023-07-09T10:33:10.705Z,38.00
2023-07-09T10:35:45.850Z,38.50
2023-07-09T10:38:21.349Z,38.80
2023-07-09T10:40:53.197Z,39.80
2023-07-09T10:43:39.730Z,40.10
2023-07-09T10:46:16.815Z,38.40
2023-07-09T10:48:47.580Z,37.90
2023-07-09T10:51:27.147Z,38.90
2023-07-09T10:54:02.882Z,39.20
2023-07-09T10:56:37.088Z,38.50
2023-07-09T10:59:09.590Z,38.20
2023-07-09T11:01:41.612Z,37.10
2023-07-09T11:04:38.838Z,37.30
2023-07-09T11:07:12.607Z,36.90
2023-07-09T11:09:50.413Z,36.30
2023-07-09T11:12:26.247Z,35.30
2023-07-09T11:15:04.468Z,35.10
2023-07-09T11:17:32.140Z,35.40
2023-07-09T11:20:09.957Z,35.70
2023-07-09T11:22:40.957Z,35.60
2023-07-09T11:25:12.801Z,35.50
2023-07-09T11:28:05.381Z,35.00
2023-07-09T11:30:32.407Z,35.00
2023-07-09T11:33:22.187Z,35.20
2023-07-09T11:35:52.902Z,35.00
2023-07-09T11:38:25.091Z,34.80
2023-07-09T11:40:57.067Z,35.10
2023-07-09T11:43:30.133Z,35.10
2023-07-09T11:46:02.515Z,35.70
2023-07-09T11:48:32.640Z,36.10
2023-07-09T11:51:10.165Z,36.30
2023-07-09T11:53:41.390Z,36.60
2023-07-09T11:56:10.295Z,37.20
2023-07-09T11:58:37.384Z,37.80
2023-07-09T12:01:15.181Z,38.50
2023-07-09T12:03:46.490Z,38.90
2023-07-09T12:06:23.992Z,39.10
2023-07-09T12:08:52.507Z,39.80
2023-07-09T12:11:44.844Z,40.10
2023-07-09T12:14:16.387Z,40.60
2023-07-09T12:16:46.700Z,40.90
2023-07-09T12:19:15.687Z,41.10
2023-07-09T12:21:45.579Z,40.20
2023-07-09T12:24:23.566Z,39.40
2023-07-09T12:26:55.169Z,38.80
2023-07-09T12:29:26.652Z,38.30
2023-07-09T12:31:53.548Z,38.40
2023-07-09T12:34:20.486Z,38.70
2023-07-09T12:36:51.029Z,38.30
2023-07-09T12:39:26.857Z,39.10
2023-07-09T12:42:01.387Z,38.90
2023-07-09T12:44:32.694Z,38.90
2023-07-09T12:46:59.732Z,38.70
2023-07-09T12:49:37.761Z,38.40
2023-07-09T12:52:13.066Z,38.20
2023-07-09T12:54:39.972Z,37.30
2023-07-09T12:57:17.920Z,37.10
2023-07-09T12:59:47.127Z,37.20
2023-07-09T13:02:26.290Z,36.90
2023-07-09T13:05:07.657Z,37.00
2023-07-09T13:07:42.803Z,37.10
2023-07-09T13:10:19.731Z,36.70
2023-07-09T13:12:50.233Z,36.70
2023-07-09T13:15:35.986Z,37.10
2023-07-09T13:18:05.554Z,37.10
2023-07-09T13:20:36.066Z,37.60
2023-07-09T13:23:10.914Z,38.30
2023-07-09T13:25:47.785Z,39.00
2023-07-09T13:28:23.229Z,39.80
2023-07-09T13:30:52.780Z,40.90
2023-07-09T13:33:19.812Z,41.80
2023-07-09T13:35:47.981Z,42.40
2023-07-09T13:38:19.927Z,43.30
2023-07-09T13:40:50.697Z,44.00
2023-07-09T13:43:24.297Z,44.80
2023-07-09T13:45:51.285Z,45.50
2023-07-09T13:48:20.542Z,46.30
2023-07-09T13:50:50.800Z,47.10
2023-07-09T13:53:21.506Z,47.70
2023-07-09T13:55:50.511Z,48.30
2023-07-09T13:58:19.380Z,49.00
2023-07-09T14:00:48.640Z,49.50
2023-07-09T14:03:25.539Z,49.80
2023-07-09T14:05:53.819Z,50.10
2023-07-09T14:08:22.793Z,50.60
2023-07-09T14:10:53.520Z,51.10
2023-07-09T14:13:24.547Z,51.50
2023-07-09T14:15:51.396Z,51.40
2023-07-09T14:18:21.985Z,51.50
2023-07-09T14:20:50.086Z,51.80
2023-07-09T14:23:19.192Z,52.00
2023-07-09T14:25:46.414Z,52.30
2023-07-09T14:28:18.780Z,52.70
2023-07-09T14:30:47.411Z,53.00
2023-07-09T14:33:22.387Z,53.50
2023-07-09T14:35:50.769Z,53.90
2023-07-09T14:38:21.850Z,56.90
2023-07-09T14:40:50.645Z,60.50
2023-07-09T14:43:17.652Z,65.90
2023-07-09T14:45:44.740Z,70.10
2023-07-09T14:48:17.355Z,73.60
2023-07-09T14:50:45.089Z,75.80
2023-07-09T14:53:22.979Z,77.80
2023-07-09T14:55:50.064Z,81.40
2023-07-09T14:58:22.593Z,83.70
2023-07-09T15:00:50.043Z,85.30
2023-07-09T15:03:23.623Z,85.30
2023-07-09T15:05:51.111Z,84.30
2023-07-09T15:08:20.867Z,84.20
2023-07-09T15:10:49.060Z,83.00
2023-07-09T15:13:35.291Z,82.30
2023-07-09T15:16:03.925Z,81.90
2023-07-09T15:18:31.143Z,81.20
2023-07-09T15:20:59.654Z,81.20
2023-07-09T15:23:28.290Z,81.10
2023-07-09T15:25:55.735Z,81.20
2023-07-09T15:28:23.084Z,80.70
2023-07-09T15:30:50.043Z,80.40
2023-07-09T15:33:20.437Z,80.20
2023-07-09T15:35:51.523Z,79.70
2023-07-09T15:38:32.947Z,80.20
2023-07-09T15:40:59.872Z,79.90
2023-07-09T15:43:27.206Z,79.80
2023-07-09T15:45:58.451Z,79.20
2023-07-09T15:48:36.863Z,79.00
2023-07-09T15:51:05.822Z,79.30
2023-07-09T15:53:33.598Z,80.40
2023-07-09T15:56:06.621Z,80.00
2023-07-09T15:58:40.747Z,79.80
2023-07-09T16:01:12.632Z,79.80
2023-07-09T16:03:40.108Z,79.90
2023-07-09T16:06:06.993Z,79.30
2023-07-09T16:08:33.851Z,79.50
2023-07-09T16:11:01.296Z,79.20
2023-07-09T16:13:28.931Z,79.00
2023-07-09T16:15:55.992Z,79.00
2023-07-09T16:18:22.990Z,79.00
2023-07-09T16:20:50.743Z,78.90
2023-07-09T16:23:20.673Z,77.70
2023-07-09T16:25:51.102Z,77.40
2023-07-09T16:28:20.666Z,77.40
2023-07-09T16:30:49.573Z,77.00
2023-07-09T16:33:16.485Z,76.80
2023-07-09T16:35:43.723Z,76.40
2023-07-09T16:38:14.256Z,76.70
2023-07-09T16:40:41.316Z,76.40
2023-07-09T16:43:22.145Z,75.70
2023-07-09T16:45:49.474Z,76.00
2023-07-09T16:48:25.664Z,76.60
2023-07-09T16:50:55.157Z,76.40
2023-07-09T16:53:23.246Z,76.50
2023-07-09T16:55:51.131Z,75.90
2023-07-09T16:58:36.405Z,76.20
2023-07-09T17:01:04.237Z,75.10
2023-07-09T17:03:31.604Z,75.50
2023-07-09T17:05:58.705Z,75.40
2023-07-09T17:08:27.828Z,75.40
2023-07-09T17:10:54.957Z,75.80
2023-07-09T17:13:26.765Z,76.00
2023-07-09T17:15:54.116Z,76.40
2023-07-09T17:18:31.125Z,76.90
2023-07-09T17:21:01.374Z,76.80
2023-07-09T17:23:30.977Z,76.60
2023-07-09T17:26:00.448Z,76.60
2023-07-09T17:28:30.104Z,77.60
2023-07-09T17:30:58.024Z,78.00
2023-07-09T17:33:25.765Z,78.00
2023-07-09T17:35:53.758Z,78.10
2023-07-09T17:38:40.231Z,78.80
2023-07-09T17:41:07.315Z,78.60
2023-07-09T17:43:34.227Z,78.50
2023-07-09T17:46:01.235Z,78.60
2023-07-09T17:48:31.303Z,79.00
2023-07-09T17:50:58.789Z,78.90
2023-07-09T17:53:28.411Z,78.70
2023-07-09T17:55:55.800Z,79.00
2023-07-09T17:58:28.606Z,78.60
2023-07-09T18:01:04.000Z,78.40
2023-07-09T18:03:31.180Z,78.40
2023-07-09T18:05:58.294Z,79.10
2023-07-09T18:08:25.301Z,79.20
2023-07-09T18:10:53.209Z,79.20
2023-07-09T18:13:27.629Z,79.50
2023-07-09T18:15:55.661Z,79.10
2023-07-09T18:18:23.401Z,79.00
2023-07-09T18:20:50.555Z,78.60
2023-07-09T18:23:17.541Z,78.40
2023-07-09T18:25:45.965Z,78.60
2023-07-09T18:28:28.099Z,78.60
2023-07-09T18:31:07.455Z,78.70
2023-07-09T18:33:41.973Z,79.10
2023-07-09T18:36:09.135Z,79.80
2023-07-09T18:38:35.958Z,80.00
2023-07-09T18:41:14.199Z,80.10
2023-07-09T18:43:41.063Z,80.00
2023-07-09T18:46:11.259Z,79.90
2023-07-09T18:48:38.152Z,79.40
2023-07-09T18:51:08.909Z,79.80
2023-07-09T18:53:36.133Z,79.70
2023-07-09T18:56:03.672Z,79.70
2023-07-09T18:58:31.019Z,79.50
2023-07-09T19:01:00.045Z,79.50
2023-07-09T19:03:36.644Z,79.40
2023-07-09T19:06:04.465Z,79.40
2023-07-09T19:08:33.579Z,79.50
2023-07-09T19:11:03.087Z,79.70
2023-07-09T19:13:30.709Z,80.00
2023-07-09T19:16:01.727Z,80.40
2023-07-09T19:18:34.348Z,80.10
2023-07-09T19:21:01.439Z,80.20
2023-07-09T19:23:28.624Z,80.20
2023-07-09T19:25:55.614Z,80.40
2023-07-09T19:28:23.559Z,80.20
2023-07-09T19:30:52.809Z,80.20
2023-07-09T19:33:41.084Z,80.80
2023-07-09T19:36:23.728Z,80.70
2023-07-09T19:38:52.627Z,81.00
2023-07-09T19:41:21.062Z,80.90
2023-07-09T19:43:47.966Z,81.00
2023-07-09T19:46:20.228Z,81.00
2023-07-09T19:48:47.213Z,80.80
2023-07-09T19:51:14.510Z,81.20
2023-07-09T19:53:41.367Z,81.40
2023-07-09T19:56:08.302Z,81.50
2023-07-09T19:58:35.240Z,81.80
2023-07-09T20:01:02.607Z,82.00
2023-07-09T20:03:32.936Z,82.50
2023-07-09T20:06:00.591Z,82.20
2023-07-09T20:08:27.667Z,82.20
2023-07-09T20:10:59.200Z,82.30
2023-07-09T20:13:31.503Z,82.60
2023-07-09T20:15:58.872Z,82.60
2023-07-09T20:18:26.834Z,82.50
2023-07-09T20:21:03.802Z,82.60
2023-07-09T20:23:32.040Z,82.40
2023-07-09T20:25:59.644Z,82.50
2023-07-09T20:28:28.783Z,82.10
2023-07-09T20:30:56.682Z,82.00
2023-07-09T20:33:24.849Z,82.20
2023-07-09T20:35:52.641Z,81.70
2023-07-09T20:38:24.615Z,81.90
2023-07-09T20:40:52.096Z,81.20
2023-07-09T20:43:27.737Z,81.30
2023-07-09T20:45:55.448Z,80.70
2023-07-09T20:48:24.582Z,80.30
2023-07-09T20:50:52.507Z,80.60
2023-07-09T20:53:20.448Z,80.60
2023-07-09T20:55:48.550Z,80.20
2023-07-09T20:58:17.568Z,80.50
2023-07-09T21:00:45.507Z,80.40
2023-07-09T21:03:16.390Z,80.40
2023-07-09T21:05:43.477Z,80.40
2023-07-09T21:08:17.191Z,80.30
2023-07-09T21:10:46.041Z,80.40
2023-07-09T21:13:15.477Z,80.60
2023-07-09T21:15:43.431Z,80.70
2023-07-09T21:18:16.646Z,80.80
2023-07-09T21:20:44.188Z,81.20
2023-07-09T21:23:19.345Z,81.80
2023-07-09T21:25:47.082Z,81.60
2023-07-09T21:28:15.032Z,81.60
2023-07-09T21:30:42.457Z,81.90
2023-07-09T21:33:18.122Z,82.20
2023-07-09T21:35:46.704Z,81.80
2023-07-09T21:38:20.205Z,81.40
2023-07-09T21:40:47.793Z,81.40
2023-07-09T21:43:14.678Z,81.70
2023-07-09T21:45:43.725Z,81.80
2023-07-09T21:48:27.089Z,81.90
2023-07-09T21:50:55.278Z,81.90
2023-07-09T21:53:45.894Z,82.20
2023-07-09T21:56:15.165Z,82.10
2023-07-09T21:58:42.229Z,82.00
2023-07-09T22:01:19.994Z,82.10
2023-07-09T22:03:47.336Z,82.30
2023-07-09T22:06:15.008Z,82.50
2023-07-09T22:08:46.876Z,82.90
2023-07-09T22:11:28.065Z,83.10
2023-07-09T22:13:56.885Z,83.20
2023-07-09T22:16:26.469Z,82.90
2023-07-09T22:18:53.444Z,82.90
2023-07-09T22:21:20.330Z,82.50
2023-07-09T22:23:47.241Z,82.50
2023-07-09T22:26:14.188Z,82.20
2023-07-09T22:28:41.752Z,82.30
2023-07-09T22:31:11.255Z,82.30
2023-07-09T22:33:38.236Z,82.30
2023-07-09T22:36:05.670Z,81.90
2023-07-09T22:38:32.990Z,81.70
2023-07-09T22:41:00.651Z,81.30
2023-07-09T22:43:27.492Z,81.20
2023-07-09T22:45:55.721Z,81.50
2023-07-09T22:48:23.169Z,81.20
2023-07-09T22:50:55.475Z,80.80
2023-07-09T22:53:23.938Z,81.10
2023-07-09T22:55:52.535Z,80.90
2023-07-09T22:58:21.392Z,81.10
2023-07-09T23:01:01.847Z,80.90
2023-07-09T23:03:37.992Z,80.70
2023-07-09T23:06:19.860Z,80.90
2023-07-09T23:08:47.782Z,80.60
2023-07-09T23:11:21.564Z,80.60
2023-07-09T23:13:48.861Z,80.20
2023-07-09T23:16:18.014Z,80.40
2023-07-09T23:18:46.136Z,80.10
2023-07-09T23:21:21.571Z,80.50
2023-07-09T23:23:49.622Z,80.50
2023-07-09T23:26:17.596Z,80.50
2023-07-09T23:28:44.440Z,80.70
2023-07-09T23:31:31.151Z,81.10
2023-07-09T23:34:00.029Z,80.90
2023-07-09T23:36:27.841Z,81.00
2023-07-09T23:38:55.128Z,81.20
2023-07-09T23:41:27.808Z,81.10
2023-07-09T23:43:56.957Z,81.10
2023-07-09T23:46:29.309Z,81.30
2023-07-09T23:49:08.646Z,81.40
2023-07-09T23:51:36.819Z,81.40
2023-07-09T23:54:03.711Z,81.60
2023-07-09T23:56:34.846Z,81.50
2023-07-09T23:59:03.233Z,81.50
